Seattle, Washington
Current Conditions -  °F | °C
As of 10:53 AM on Friday 21 Nov 2014 (Local Time) from KBFI Reporting Station
Light Rain Light Rain  
Wind Chill: 52°   Ceiling: 4800
Heat Index: 52°   Visibility: 6mi
Dew Point: 46°   Wind: 7mph
Humidity: 80%   Direction: 120°ESE
Pressure: 29.66"   Gusts: NA
Location:  47.6°N, 122.32°W
Report Text: KBFI 211853Z AUTO 12006KT 6SM -RA SCT041 BKN048 OVC060 11/08 A2966 RMK AO2 RAB1756E09B25 SLP044 P0002 T01110078 TSNO
Loading
Personal Weather Stations






























Interactive Weather Map New forecast layout! Learn more

10-Day Weather Forecast

Advertisements
Track Severe Weather on mobile